CPH weather

Copenhagen Kastrup Airport
Copenhagen, Capital Region, Denmark

Public forecast

Using degrees Celsius for public forecast. Weather courtesy of forecast.io.

METAR (pilot weather report)

Retrieved 2019/04/23 09:20 UTC (13 minutes ago):

EKCH 230920Z AUTO 12023KT 9999NDV NCD 15/01 Q1019 TEMPO 12022G35KT

TAF (pilot weather forecast)

Retrieved 2019/04/23 06:25 UTC (3 hours ago):

TAF EKCH 230514Z 2306/2406 10018KT CAVOK TEMPO 2309/2317 10022G35KT